sensor_id;sensor_type;location;lat;lon;timestamp;temperature;humidity
14475;DHT22;7323;50.848;4.334;2024-02-14T00:01:34;9.60;99.90
14475;DHT22;7323;50.848;4.334;2024-02-14T00:04:03;9.70;99.90
14475;DHT22;7323;50.848;4.334;2024-02-14T00:06:28;9.60;99.90
14475;DHT22;7323;50.848;4.334;2024-02-14T00:08:54;9.60;99.90
14475;DHT22;7323;50.848;4.334;2024-02-14T00:11:20;9.70;99.90
14475;DHT22;7323;50.848;4.334;2024-02-14T00:13:45;9.80;99.90
14475;DHT22;7323;50.848;4.334;2024-02-14T00:16:11;9.80;99.90
14475;DHT22;7323;50.848;4.334;2024-02-14T00:18:37;9.70;99.90
14475;DHT22;7323;50.848;4.334;2024-02-14T00:21:02;9.80;99.90
14475;DHT22;7323;50.848;4.334;2024-02-14T00:23:28;9.70;99.90
14475;DHT22;7323;50.848;4.334;2024-02-14T00:25:54;9.80;99.90
14475;DHT22;7323;50.848;4.334;2024-02-14T00:28:19;9.70;99.90
14475;DHT22;7323;50.848;4.334;2024-02-14T00:30:45;9.80;99.90
14475;DHT22;7323;50.848;4.334;2024-02-14T00:33:11;9.90;99.90
14475;DHT22;7323;50.848;4.334;2024-02-14T00:35:36;9.90;99.90
14475;DHT22;7323;50.848;4.334;2024-02-14T00:38:02;10.00;99.90
14475;DHT22;7323;50.848;4.334;2024-02-14T00:40:28;9.90;99.90
14475;DHT22;7323;50.848;4.334;2024-02-14T00:42:53;9.90;99.90
14475;DHT22;7323;50.848;4.334;2024-02-14T00:45:19;10.00;99.90
14475;DHT22;7323;50.848;4.334;2024-02-14T00:47:45;10.00;99.90
14475;DHT22;7323;50.848;4.334;2024-02-14T00:50:10;10.10;99.90
14475;DHT22;7323;50.848;4.334;2024-02-14T00:52:39;10.00;99.90
14475;DHT22;7323;50.848;4.334;2024-02-14T00:55:05;10.00;99.90
14475;DHT22;7323;50.848;4.334;2024-02-14T00:57:31;10.00;99.90
14475;DHT22;7323;50.848;4.334;2024-02-14T00:59:57;10.00;99.90
14475;DHT22;7323;50.848;4.334;2024-02-14T01:02:23;10.00;99.90
14475;DHT22;7323;50.848;4.334;2024-02-14T01:04:49;10.20;99.90
14475;DHT22;7323;50.848;4.334;2024-02-14T01:07:14;10.10;99.90
14475;DHT22;7323;50.848;4.334;2024-02-14T01:09:40;10.00;99.90
14475;DHT22;7323;50.848;4.334;2024-02-14T01:12:06;10.20;99.90
14475;DHT22;7323;50.848;4.334;2024-02-14T01:14:32;10.10;99.90
14475;DHT22;7323;50.848;4.334;2024-02-14T01:16:58;10.20;99.90
14475;DHT22;7323;50.848;4.334;2024-02-14T01:19:23;10.10;99.90
14475;DHT22;7323;50.848;4.334;2024-02-14T01:21:51;10.00;99.90
14475;DHT22;7323;50.848;4.334;2024-02-14T01:24:17;10.10;99.90
14475;DHT22;7323;50.848;4.334;2024-02-14T01:26:42;10.00;99.90
14475;DHT22;7323;50.848;4.334;2024-02-14T01:29:08;10.00;99.90
14475;DHT22;7323;50.848;4.334;2024-02-14T01:31:34;10.00;99.90
14475;DHT22;7323;50.848;4.334;2024-02-14T01:34:00;9.90;99.90
14475;DHT22;7323;50.848;4.334;2024-02-14T01:36:29;9.90;99.90
14475;DHT22;7323;50.848;4.334;2024-02-14T01:38:55;9.90;99.90
14475;DHT22;7323;50.848;4.334;2024-02-14T01:41:20;10.00;99.90
14475;DHT22;7323;50.848;4.334;2024-02-14T01:43:47;10.00;99.90
14475;DHT22;7323;50.848;4.334;2024-02-14T01:46:13;10.00;99.90
14475;DHT22;7323;50.848;4.334;2024-02-14T01:48:40;9.90;99.90
14475;DHT22;7323;50.848;4.334;2024-02-14T01:51:08;10.00;99.90
14475;DHT22;7323;50.848;4.334;2024-02-14T01:53:36;10.10;99.90
14475;DHT22;7323;50.848;4.334;2024-02-14T01:56:04;10.10;99.90
14475;DHT22;7323;50.848;4.334;2024-02-14T01:58:30;10.00;99.90
14475;DHT22;7323;50.848;4.334;2024-02-14T02:00:56;10.00;99.90
14475;DHT22;7323;50.848;4.334;2024-02-14T02:03:24;10.00;99.90
14475;DHT22;7323;50.848;4.334;2024-02-14T02:05:51;10.00;99.90
14475;DHT22;7323;50.848;4.334;2024-02-14T02:08:17;10.10;99.90
14475;DHT22;7323;50.848;4.334;2024-02-14T02:10:43;10.00;99.90
14475;DHT22;7323;50.848;4.334;2024-02-14T02:13:09;10.00;99.90
14475;DHT22;7323;50.848;4.334;2024-02-14T02:15:34;9.90;99.90
14475;DHT22;7323;50.848;4.334;2024-02-14T02:18:03;10.00;99.90
14475;DHT22;7323;50.848;4.334;2024-02-14T02:20:31;9.90;99.90
14475;DHT22;7323;50.848;4.334;2024-02-14T02:22:58;9.80;99.90
14475;DHT22;7323;50.848;4.334;2024-02-14T02:25:25;9.90;99.90
14475;DHT22;7323;50.848;4.334;2024-02-14T02:27:52;10.00;99.90
14475;DHT22;7323;50.848;4.334;2024-02-14T02:30:19;9.90;99.90
14475;DHT22;7323;50.848;4.334;2024-02-14T02:32:44;10.00;99.90
14475;DHT22;7323;50.848;4.334;2024-02-14T02:35:10;10.00;99.90
14475;DHT22;7323;50.848;4.334;2024-02-14T02:37:36;10.10;99.90
14475;DHT22;7323;50.848;4.334;2024-02-14T02:40:01;10.10;99.90
14475;DHT22;7323;50.848;4.334;2024-02-14T02:42:27;10.10;99.90
14475;DHT22;7323;50.848;4.334;2024-02-14T02:44:54;10.20;99.90
14475;DHT22;7323;50.848;4.334;2024-02-14T02:47:20;10.10;99.90
14475;DHT22;7323;50.848;4.334;2024-02-14T02:49:46;10.10;99.90
14475;DHT22;7323;50.848;4.334;2024-02-14T02:52:12;10.10;99.90
14475;DHT22;7323;50.848;4.334;2024-02-14T02:54:38;10.10;99.90
14475;DHT22;7323;50.848;4.334;2024-02-14T02:57:12;10.20;99.90
14475;DHT22;7323;50.848;4.334;2024-02-14T02:59:38;10.30;99.90
14475;DHT22;7323;50.848;4.334;2024-02-14T03:02:08;10.30;99.90
14475;DHT22;7323;50.848;4.334;2024-02-14T03:04:34;10.20;99.90
14475;DHT22;7323;50.848;4.334;2024-02-14T03:06:59;10.30;99.90
14475;DHT22;7323;50.848;4.334;2024-02-14T03:09:33;10.50;99.90
14475;DHT22;7323;50.848;4.334;2024-02-14T03:11:58;10.30;99.90
14475;DHT22;7323;50.848;4.334;2024-02-14T03:14:24;10.40;99.90
14475;DHT22;7323;50.848;4.334;2024-02-14T03:16:50;10.40;99.90
14475;DHT22;7323;50.848;4.334;2024-02-14T03:19:16;10.40;99.90
14475;DHT22;7323;50.848;4.334;2024-02-14T03:21:42;10.50;99.90
14475;DHT22;7323;50.848;4.334;2024-02-14T03:24:08;10.50;99.90
14475;DHT22;7323;50.848;4.334;2024-02-14T03:26:35;10.70;99.90
14475;DHT22;7323;50.848;4.334;2024-02-14T03:29:01;10.50;99.90
14475;DHT22;7323;50.848;4.334;2024-02-14T03:31:27;10.60;99.90
14475;DHT22;7323;50.848;4.334;2024-02-14T03:33:53;10.50;99.90
14475;DHT22;7323;50.848;4.334;2024-02-14T03:36:19;10.70;99.90
14475;DHT22;7323;50.848;4.334;2024-02-14T03:38:45;10.50;99.90
14475;DHT22;7323;50.848;4.334;2024-02-14T03:41:12;10.50;99.90
14475;DHT22;7323;50.848;4.334;2024-02-14T03:43:38;10.60;99.90
14475;DHT22;7323;50.848;4.334;2024-02-14T03:46:04;10.60;99.90
14475;DHT22;7323;50.848;4.334;2024-02-14T03:48:31;10.60;99.90
14475;DHT22;7323;50.848;4.334;2024-02-14T03:50:57;10.60;99.90
14475;DHT22;7323;50.848;4.334;2024-02-14T03:53:23;10.60;99.90
14475;DHT22;7323;50.848;4.334;2024-02-14T03:55:48;10.60;99.90
14475;DHT22;7323;50.848;4.334;2024-02-14T03:58:15;10.40;99.90
14475;DHT22;7323;50.848;4.334;2024-02-14T04:00:49;10.40;99.90
14475;DHT22;7323;50.848;4.334;2024-02-14T04:03:16;10.40;99.90
14475;DHT22;7323;50.848;4.334;2024-02-14T04:05:42;10.40;99.90
14475;DHT22;7323;50.848;4.334;2024-02-14T04:08:07;10.40;99.90
14475;DHT22;7323;50.848;4.334;2024-02-14T04:10:39;10.50;99.90
14475;DHT22;7323;50.848;4.334;2024-02-14T04:13:05;10.50;99.90
14475;DHT22;7323;50.848;4.334;2024-02-14T04:15:34;10.50;99.90
14475;DHT22;7323;50.848;4.334;2024-02-14T04:17:59;10.60;99.90
14475;DHT22;7323;50.848;4.334;2024-02-14T04:20:28;10.60;99.90
14475;DHT22;7323;50.848;4.334;2024-02-14T04:22:53;10.40;99.90
14475;DHT22;7323;50.848;4.334;2024-02-14T04:25:19;10.40;99.90
14475;DHT22;7323;50.848;4.334;2024-02-14T04:27:44;10.40;99.90
14475;DHT22;7323;50.848;4.334;2024-02-14T04:30:10;10.40;99.90
14475;DHT22;7323;50.848;4.334;2024-02-14T04:32:37;10.40;99.90
14475;DHT22;7323;50.848;4.334;2024-02-14T04:35:03;10.40;99.90
14475;DHT22;7323;50.848;4.334;2024-02-14T04:37:29;10.40;99.90
14475;DHT22;7323;50.848;4.334;2024-02-14T04:39:55;10.40;99.90
14475;DHT22;7323;50.848;4.334;2024-02-14T04:42:20;10.40;99.90
14475;DHT22;7323;50.848;4.334;2024-02-14T04:44:46;10.50;99.90
14475;DHT22;7323;50.848;4.334;2024-02-14T04:47:11;10.50;99.90
14475;DHT22;7323;50.848;4.334;2024-02-14T04:49:37;10.50;99.90
14475;DHT22;7323;50.848;4.334;2024-02-14T04:52:04;10.50;99.90
14475;DHT22;7323;50.848;4.334;2024-02-14T04:54:29;10.50;99.90
14475;DHT22;7323;50.848;4.334;2024-02-14T04:56:55;10.50;99.90
14475;DHT22;7323;50.848;4.334;2024-02-14T04:59:21;10.50;99.90
14475;DHT22;7323;50.848;4.334;2024-02-14T05:01:46;10.70;99.90
14475;DHT22;7323;50.848;4.334;2024-02-14T05:04:12;10.50;99.90
14475;DHT22;7323;50.848;4.334;2024-02-14T05:06:38;10.60;99.90
14475;DHT22;7323;50.848;4.334;2024-02-14T05:09:05;10.50;99.90
14475;DHT22;7323;50.848;4.334;2024-02-14T05:11:31;10.60;99.90
14475;DHT22;7323;50.848;4.334;2024-02-14T05:13:56;10.70;99.90
14475;DHT22;7323;50.848;4.334;2024-02-14T05:16:22;10.70;99.90
14475;DHT22;7323;50.848;4.334;2024-02-14T05:18:48;10.60;99.90
14475;DHT22;7323;50.848;4.334;2024-02-14T05:21:14;10.60;99.90
14475;DHT22;7323;50.848;4.334;2024-02-14T05:23:40;10.70;99.90
14475;DHT22;7323;50.848;4.334;2024-02-14T05:26:06;10.60;99.90
14475;DHT22;7323;50.848;4.334;2024-02-14T05:28:32;10.60;99.90
14475;DHT22;7323;50.848;4.334;2024-02-14T05:30:59;10.70;99.90
14475;DHT22;7323;50.848;4.334;2024-02-14T05:33:25;10.70;99.90
14475;DHT22;7323;50.848;4.334;2024-02-14T05:35:52;10.60;99.90
14475;DHT22;7323;50.848;4.334;2024-02-14T05:38:18;10.70;99.90
14475;DHT22;7323;50.848;4.334;2024-02-14T05:40:47;10.70;99.90
14475;DHT22;7323;50.848;4.334;2024-02-14T05:43:13;10.80;99.90
14475;DHT22;7323;50.848;4.334;2024-02-14T05:45:39;10.60;99.90
14475;DHT22;7323;50.848;4.334;2024-02-14T05:48:06;10.60;99.90
14475;DHT22;7323;50.848;4.334;2024-02-14T05:50:32;10.60;99.90
14475;DHT22;7323;50.848;4.334;2024-02-14T05:52:58;10.80;99.90
14475;DHT22;7323;50.848;4.334;2024-02-14T05:55:24;10.80;99.90
14475;DHT22;7323;50.848;4.334;2024-02-14T05:57:50;10.70;99.90
14475;DHT22;7323;50.848;4.334;2024-02-14T06:00:18;10.70;99.90
14475;DHT22;7323;50.848;4.334;2024-02-14T06:02:44;10.70;99.90
14475;DHT22;7323;50.848;4.334;2024-02-14T06:05:10;10.80;99.90
14475;DHT22;7323;50.848;4.334;2024-02-14T06:07:39;10.80;99.90
14475;DHT22;7323;50.848;4.334;2024-02-14T06:10:10;10.70;99.90
14475;DHT22;7323;50.848;4.334;2024-02-14T06:12:36;10.90;99.90
14475;DHT22;7323;50.848;4.334;2024-02-14T06:15:02;10.90;99.90
14475;DHT22;7323;50.848;4.334;2024-02-14T06:17:28;10.80;99.90
14475;DHT22;7323;50.848;4.334;2024-02-14T06:19:54;10.90;99.90
14475;DHT22;7323;50.848;4.334;2024-02-14T06:22:20;10.80;99.90
14475;DHT22;7323;50.848;4.334;2024-02-14T06:24:46;10.80;99.90
14475;DHT22;7323;50.848;4.334;2024-02-14T06:27:15;10.80;99.90
14475;DHT22;7323;50.848;4.334;2024-02-14T06:29:44;10.80;99.90
14475;DHT22;7323;50.848;4.334;2024-02-14T06:32:13;10.90;99.90
14475;DHT22;7323;50.848;4.334;2024-02-14T06:34:39;10.80;99.90
14475;DHT22;7323;50.848;4.334;2024-02-14T06:37:04;10.80;99.90
14475;DHT22;7323;50.848;4.334;2024-02-14T06:39:30;10.80;99.90
14475;DHT22;7323;50.848;4.334;2024-02-14T06:41:56;10.80;99.90
14475;DHT22;7323;50.848;4.334;2024-02-14T06:44:25;10.90;99.90
14475;DHT22;7323;50.848;4.334;2024-02-14T06:46:50;10.90;99.90
14475;DHT22;7323;50.848;4.334;2024-02-14T06:49:16;10.90;99.90
14475;DHT22;7323;50.848;4.334;2024-02-14T06:51:43;10.90;99.90
14475;DHT22;7323;50.848;4.334;2024-02-14T06:54:09;10.90;99.90
14475;DHT22;7323;50.848;4.334;2024-02-14T06:56:35;10.80;99.90
14475;DHT22;7323;50.848;4.334;2024-02-14T06:59:01;10.80;99.90
14475;DHT22;7323;50.848;4.334;2024-02-14T07:01:29;10.90;99.90
14475;DHT22;7323;50.848;4.334;2024-02-14T07:03:55;10.90;99.90
14475;DHT22;7323;50.848;4.334;2024-02-14T07:06:20;11.00;99.90
14475;DHT22;7323;50.848;4.334;2024-02-14T07:08:46;10.90;99.90
14475;DHT22;7323;50.848;4.334;2024-02-14T07:11:13;10.90;99.90
14475;DHT22;7323;50.848;4.334;2024-02-14T07:13:38;11.00;99.90
14475;DHT22;7323;50.848;4.334;2024-02-14T07:16:04;11.00;99.90
14475;DHT22;7323;50.848;4.334;2024-02-14T07:18:31;11.00;99.90
14475;DHT22;7323;50.848;4.334;2024-02-14T07:20:57;11.00;99.90
14475;DHT22;7323;50.848;4.334;2024-02-14T07:23:22;11.00;99.90
14475;DHT22;7323;50.848;4.334;2024-02-14T07:25:48;11.10;99.90
14475;DHT22;7323;50.848;4.334;2024-02-14T07:28:14;11.10;99.90
14475;DHT22;7323;50.848;4.334;2024-02-14T07:30:39;11.10;99.90
14475;DHT22;7323;50.848;4.334;2024-02-14T07:33:06;11.10;99.90
14475;DHT22;7323;50.848;4.334;2024-02-14T07:35:33;11.30;99.90
14475;DHT22;7323;50.848;4.334;2024-02-14T07:37:59;11.30;99.90
14475;DHT22;7323;50.848;4.334;2024-02-14T07:40:24;11.20;99.90
14475;DHT22;7323;50.848;4.334;2024-02-14T07:42:50;11.20;99.90
14475;DHT22;7323;50.848;4.334;2024-02-14T07:45:16;11.20;99.90
14475;DHT22;7323;50.848;4.334;2024-02-14T07:47:42;11.20;99.90
14475;DHT22;7323;50.848;4.334;2024-02-14T07:50:08;11.20;99.90
14475;DHT22;7323;50.848;4.334;2024-02-14T07:52:34;11.10;99.90
14475;DHT22;7323;50.848;4.334;2024-02-14T07:54:59;11.20;99.90
14475;DHT22;7323;50.848;4.334;2024-02-14T07:57:25;11.30;99.90
14475;DHT22;7323;50.848;4.334;2024-02-14T07:59:51;11.40;99.90
14475;DHT22;7323;50.848;4.334;2024-02-14T08:02:18;11.30;99.90
14475;DHT22;7323;50.848;4.334;2024-02-14T08:04:44;11.40;99.90
14475;DHT22;7323;50.848;4.334;2024-02-14T08:07:10;11.40;99.90
14475;DHT22;7323;50.848;4.334;2024-02-14T08:09:36;11.40;99.90
14475;DHT22;7323;50.848;4.334;2024-02-14T08:12:02;11.40;99.90
14475;DHT22;7323;50.848;4.334;2024-02-14T08:14:28;11.40;99.90
14475;DHT22;7323;50.848;4.334;2024-02-14T08:16:53;11.50;99.90
14475;DHT22;7323;50.848;4.334;2024-02-14T08:19:19;11.40;99.90
14475;DHT22;7323;50.848;4.334;2024-02-14T08:21:45;11.50;99.90
14475;DHT22;7323;50.848;4.334;2024-02-14T08:24:11;11.40;99.90
14475;DHT22;7323;50.848;4.334;2024-02-14T08:26:36;11.50;99.90
14475;DHT22;7323;50.848;4.334;2024-02-14T08:29:02;11.50;99.90
14475;DHT22;7323;50.848;4.334;2024-02-14T08:31:29;11.40;99.90
14475;DHT22;7323;50.848;4.334;2024-02-14T08:33:55;11.50;99.90
14475;DHT22;7323;50.848;4.334;2024-02-14T08:36:20;11.60;99.90
14475;DHT22;7323;50.848;4.334;2024-02-14T08:38:46;11.50;99.90
14475;DHT22;7323;50.848;4.334;2024-02-14T08:41:12;11.60;99.90
14475;DHT22;7323;50.848;4.334;2024-02-14T08:43:38;11.60;99.90
14475;DHT22;7323;50.848;4.334;2024-02-14T08:46:09;11.70;99.90
14475;DHT22;7323;50.848;4.334;2024-02-14T08:48:35;11.60;99.90
14475;DHT22;7323;50.848;4.334;2024-02-14T08:51:00;11.60;99.90
14475;DHT22;7323;50.848;4.334;2024-02-14T08:53:26;11.60;99.90
14475;DHT22;7323;50.848;4.334;2024-02-14T08:55:52;11.50;99.90
14475;DHT22;7323;50.848;4.334;2024-02-14T08:58:18;11.60;99.90
14475;DHT22;7323;50.848;4.334;2024-02-14T09:00:43;11.60;99.90
14475;DHT22;7323;50.848;4.334;2024-02-14T09:03:09;11.70;99.90
14475;DHT22;7323;50.848;4.334;2024-02-14T09:05:35;11.70;99.90
14475;DHT22;7323;50.848;4.334;2024-02-14T09:08:01;11.70;99.90
14475;DHT22;7323;50.848;4.334;2024-02-14T09:10:27;11.80;99.90
14475;DHT22;7323;50.848;4.334;2024-02-14T09:12:52;11.80;99.90
14475;DHT22;7323;50.848;4.334;2024-02-14T09:15:18;11.80;99.90
14475;DHT22;7323;50.848;4.334;2024-02-14T09:17:45;11.80;99.90
14475;DHT22;7323;50.848;4.334;2024-02-14T09:20:11;11.80;99.90
14475;DHT22;7323;50.848;4.334;2024-02-14T09:22:39;11.80;99.90
14475;DHT22;7323;50.848;4.334;2024-02-14T09:25:07;11.90;99.90
14475;DHT22;7323;50.848;4.334;2024-02-14T09:27:35;11.90;99.90
14475;DHT22;7323;50.848;4.334;2024-02-14T09:30:02;12.00;99.90
14475;DHT22;7323;50.848;4.334;2024-02-14T09:32:30;11.90;99.90
14475;DHT22;7323;50.848;4.334;2024-02-14T09:34:57;11.90;99.90
14475;DHT22;7323;50.848;4.334;2024-02-14T09:37:22;11.90;99.90
14475;DHT22;7323;50.848;4.334;2024-02-14T09:39:49;11.90;99.90
14475;DHT22;7323;50.848;4.334;2024-02-14T09:42:16;11.80;99.90
14475;DHT22;7323;50.848;4.334;2024-02-14T09:44:45;11.90;99.90
14475;DHT22;7323;50.848;4.334;2024-02-14T09:47:12;11.80;99.90
14475;DHT22;7323;50.848;4.334;2024-02-14T09:49:39;11.90;99.90
14475;DHT22;7323;50.848;4.334;2024-02-14T09:52:06;11.80;99.90
14475;DHT22;7323;50.848;4.334;2024-02-14T09:54:33;11.90;99.90
14475;DHT22;7323;50.848;4.334;2024-02-14T09:57:04;11.90;99.90
14475;DHT22;7323;50.848;4.334;2024-02-14T09:59:32;12.00;99.90
14475;DHT22;7323;50.848;4.334;2024-02-14T10:01:58;11.90;99.90
14475;DHT22;7323;50.848;4.334;2024-02-14T10:04:24;12.00;99.90
14475;DHT22;7323;50.848;4.334;2024-02-14T10:06:50;12.00;99.90
14475;DHT22;7323;50.848;4.334;2024-02-14T10:09:23;12.00;99.90
14475;DHT22;7323;50.848;4.334;2024-02-14T10:11:49;12.00;99.90
14475;DHT22;7323;50.848;4.334;2024-02-14T10:14:15;12.00;99.90
14475;DHT22;7323;50.848;4.334;2024-02-14T10:16:41;12.10;99.90
14475;DHT22;7323;50.848;4.334;2024-02-14T10:19:16;12.00;99.90
14475;DHT22;7323;50.848;4.334;2024-02-14T10:21:42;12.00;99.90
14475;DHT22;7323;50.848;4.334;2024-02-14T10:24:08;12.00;99.90
14475;DHT22;7323;50.848;4.334;2024-02-14T10:26:36;11.90;99.90
14475;DHT22;7323;50.848;4.334;2024-02-14T10:29:02;11.90;99.90
14475;DHT22;7323;50.848;4.334;2024-02-14T10:31:28;11.90;99.90
14475;DHT22;7323;50.848;4.334;2024-02-14T10:33:55;12.00;99.90
14475;DHT22;7323;50.848;4.334;2024-02-14T10:36:24;12.00;99.90
14475;DHT22;7323;50.848;4.334;2024-02-14T10:38:50;11.90;99.90
14475;DHT22;7323;50.848;4.334;2024-02-14T10:41:16;12.00;99.90
14475;DHT22;7323;50.848;4.334;2024-02-14T10:43:43;12.00;99.90
14475;DHT22;7323;50.848;4.334;2024-02-14T10:46:19;12.00;99.90
14475;DHT22;7323;50.848;4.334;2024-02-14T10:48:46;12.00;99.90
14475;DHT22;7323;50.848;4.334;2024-02-14T10:51:15;12.00;99.90
14475;DHT22;7323;50.848;4.334;2024-02-14T10:53:41;12.10;99.90
14475;DHT22;7323;50.848;4.334;2024-02-14T10:56:13;12.00;99.90
14475;DHT22;7323;50.848;4.334;2024-02-14T10:58:42;12.00;99.90
14475;DHT22;7323;50.848;4.334;2024-02-14T11:01:10;12.10;99.90
14475;DHT22;7323;50.848;4.334;2024-02-14T11:03:36;12.00;99.90
14475;DHT22;7323;50.848;4.334;2024-02-14T11:06:03;12.00;99.90
14475;DHT22;7323;50.848;4.334;2024-02-14T11:08:32;12.00;99.90
14475;DHT22;7323;50.848;4.334;2024-02-14T11:11:00;12.10;99.90
14475;DHT22;7323;50.848;4.334;2024-02-14T11:13:30;12.10;99.90
14475;DHT22;7323;50.848;4.334;2024-02-14T11:16:03;12.10;99.90
14475;DHT22;7323;50.848;4.334;2024-02-14T11:18:30;12.20;99.90
14475;DHT22;7323;50.848;4.334;2024-02-14T11:20:56;12.30;99.90
14475;DHT22;7323;50.848;4.334;2024-02-14T11:23:25;12.20;99.90
14475;DHT22;7323;50.848;4.334;2024-02-14T11:26:00;12.30;99.90
14475;DHT22;7323;50.848;4.334;2024-02-14T11:28:26;12.20;99.90
14475;DHT22;7323;50.848;4.334;2024-02-14T11:31:00;12.30;99.90
14475;DHT22;7323;50.848;4.334;2024-02-14T11:33:26;12.30;99.90
14475;DHT22;7323;50.848;4.334;2024-02-14T11:35:54;12.20;99.90
14475;DHT22;7323;50.848;4.334;2024-02-14T11:38:21;12.30;99.90
14475;DHT22;7323;50.848;4.334;2024-02-14T11:40:47;12.30;99.90
14475;DHT22;7323;50.848;4.334;2024-02-14T11:43:16;12.30;99.90
14475;DHT22;7323;50.848;4.334;2024-02-14T11:45:48;12.30;99.90
14475;DHT22;7323;50.848;4.334;2024-02-14T11:48:18;12.30;99.90
14475;DHT22;7323;50.848;4.334;2024-02-14T11:50:46;12.30;99.90
14475;DHT22;7323;50.848;4.334;2024-02-14T11:53:16;12.40;99.90
14475;DHT22;7323;50.848;4.334;2024-02-14T11:55:43;12.40;99.90
14475;DHT22;7323;50.848;4.334;2024-02-14T11:58:10;12.50;99.90
14475;DHT22;7323;50.848;4.334;2024-02-14T12:00:57;12.40;99.90
14475;DHT22;7323;50.848;4.334;2024-02-14T12:03:23;12.50;99.90
14475;DHT22;7323;50.848;4.334;2024-02-14T12:05:51;12.60;99.90
14475;DHT22;7323;50.848;4.334;2024-02-14T12:08:18;12.70;99.90
14475;DHT22;7323;50.848;4.334;2024-02-14T12:10:44;12.60;99.90
14475;DHT22;7323;50.848;4.334;2024-02-14T12:13:17;12.70;99.90
14475;DHT22;7323;50.848;4.334;2024-02-14T12:15:47;12.70;99.90
14475;DHT22;7323;50.848;4.334;2024-02-14T12:18:14;12.70;99.90
14475;DHT22;7323;50.848;4.334;2024-02-14T12:20:41;12.80;99.90
14475;DHT22;7323;50.848;4.334;2024-02-14T12:23:07;12.70;99.90
14475;DHT22;7323;50.848;4.334;2024-02-14T12:25:33;12.80;99.90
14475;DHT22;7323;50.848;4.334;2024-02-14T12:27:59;12.80;99.90
14475;DHT22;7323;50.848;4.334;2024-02-14T12:30:48;12.90;99.90
14475;DHT22;7323;50.848;4.334;2024-02-14T12:33:24;12.90;99.90
14475;DHT22;7323;50.848;4.334;2024-02-14T12:35:51;13.00;99.90
14475;DHT22;7323;50.848;4.334;2024-02-14T12:38:19;13.00;99.90
14475;DHT22;7323;50.848;4.334;2024-02-14T12:40:45;13.00;99.90
14475;DHT22;7323;50.848;4.334;2024-02-14T12:43:13;13.20;99.90
14475;DHT22;7323;50.848;4.334;2024-02-14T12:45:39;13.10;99.90
14475;DHT22;7323;50.848;4.334;2024-02-14T12:48:06;13.20;99.90
14475;DHT22;7323;50.848;4.334;2024-02-14T12:50:34;13.20;99.90
14475;DHT22;7323;50.848;4.334;2024-02-14T12:53:01;13.10;99.90
14475;DHT22;7323;50.848;4.334;2024-02-14T12:55:28;13.10;99.90
14475;DHT22;7323;50.848;4.334;2024-02-14T12:57:57;13.10;99.90
14475;DHT22;7323;50.848;4.334;2024-02-14T13:00:23;13.10;99.90
14475;DHT22;7323;50.848;4.334;2024-02-14T13:02:49;13.10;99.90
14475;DHT22;7323;50.848;4.334;2024-02-14T13:05:16;13.10;99.90
14475;DHT22;7323;50.848;4.334;2024-02-14T13:07:43;13.10;99.90
14475;DHT22;7323;50.848;4.334;2024-02-14T13:10:09;13.10;99.90
14475;DHT22;7323;50.848;4.334;2024-02-14T13:12:37;13.20;99.90
14475;DHT22;7323;50.848;4.334;2024-02-14T13:15:04;13.10;99.90
14475;DHT22;7323;50.848;4.334;2024-02-14T13:17:30;13.10;99.90
14475;DHT22;7323;50.848;4.334;2024-02-14T13:19:56;13.20;99.90
14475;DHT22;7323;50.848;4.334;2024-02-14T13:22:22;13.10;99.90
14475;DHT22;7323;50.848;4.334;2024-02-14T13:24:48;13.10;99.90
14475;DHT22;7323;50.848;4.334;2024-02-14T13:27:14;13.10;99.90
14475;DHT22;7323;50.848;4.334;2024-02-14T13:29:40;13.20;99.90
14475;DHT22;7323;50.848;4.334;2024-02-14T13:32:06;13.10;99.90
14475;DHT22;7323;50.848;4.334;2024-02-14T13:34:33;13.10;99.90
14475;DHT22;7323;50.848;4.334;2024-02-14T13:36:59;13.10;99.90
14475;DHT22;7323;50.848;4.334;2024-02-14T13:39:25;13.10;99.90
14475;DHT22;7323;50.848;4.334;2024-02-14T13:41:51;13.20;99.90
14475;DHT22;7323;50.848;4.334;2024-02-14T13:44:18;13.20;99.90
14475;DHT22;7323;50.848;4.334;2024-02-14T13:46:44;13.10;99.90
14475;DHT22;7323;50.848;4.334;2024-02-14T13:49:15;13.20;99.90
14475;DHT22;7323;50.848;4.334;2024-02-14T13:51:47;13.20;99.90
14475;DHT22;7323;50.848;4.334;2024-02-14T13:54:12;13.20;99.90
14475;DHT22;7323;50.848;4.334;2024-02-14T13:56:41;13.20;99.90
14475;DHT22;7323;50.848;4.334;2024-02-14T13:59:07;13.30;99.90
14475;DHT22;7323;50.848;4.334;2024-02-14T14:01:33;13.30;99.90
14475;DHT22;7323;50.848;4.334;2024-02-14T14:03:58;13.20;99.90
14475;DHT22;7323;50.848;4.334;2024-02-14T14:06:24;13.20;99.90
14475;DHT22;7323;50.848;4.334;2024-02-14T14:08:50;13.20;99.90
14475;DHT22;7323;50.848;4.334;2024-02-14T14:11:16;13.10;99.90
14475;DHT22;7323;50.848;4.334;2024-02-14T14:13:42;13.20;99.90
14475;DHT22;7323;50.848;4.334;2024-02-14T14:16:08;13.20;99.90
14475;DHT22;7323;50.848;4.334;2024-02-14T14:18:35;13.20;99.90
14475;DHT22;7323;50.848;4.334;2024-02-14T14:21:01;13.30;99.90
14475;DHT22;7323;50.848;4.334;2024-02-14T14:23:26;13.30;99.90
14475;DHT22;7323;50.848;4.334;2024-02-14T14:25:52;13.40;99.90
14475;DHT22;7323;50.848;4.334;2024-02-14T14:28:17;13.40;99.90
14475;DHT22;7323;50.848;4.334;2024-02-14T14:30:59;13.30;99.90
14475;DHT22;7323;50.848;4.334;2024-02-14T14:33:26;13.30;99.90
14475;DHT22;7323;50.848;4.334;2024-02-14T14:35:52;13.40;99.90
14475;DHT22;7323;50.848;4.334;2024-02-14T14:38:19;13.40;99.90
14475;DHT22;7323;50.848;4.334;2024-02-14T14:40:46;13.50;99.90
14475;DHT22;7323;50.848;4.334;2024-02-14T14:43:12;13.60;99.90
14475;DHT22;7323;50.848;4.334;2024-02-14T14:45:38;13.60;99.90
14475;DHT22;7323;50.848;4.334;2024-02-14T14:48:04;13.50;99.90
14475;DHT22;7323;50.848;4.334;2024-02-14T14:50:30;13.60;99.90
14475;DHT22;7323;50.848;4.334;2024-02-14T14:52:57;13.60;99.90
14475;DHT22;7323;50.848;4.334;2024-02-14T14:55:25;13.50;99.90
14475;DHT22;7323;50.848;4.334;2024-02-14T14:57:54;13.60;99.90
14475;DHT22;7323;50.848;4.334;2024-02-14T15:00:21;13.60;99.90
14475;DHT22;7323;50.848;4.334;2024-02-14T15:02:47;13.60;99.90
14475;DHT22;7323;50.848;4.334;2024-02-14T15:05:13;13.60;99.90
14475;DHT22;7323;50.848;4.334;2024-02-14T15:07:39;13.60;99.90
14475;DHT22;7323;50.848;4.334;2024-02-14T15:10:06;13.60;99.90
14475;DHT22;7323;50.848;4.334;2024-02-14T15:12:35;13.60;99.90
14475;DHT22;7323;50.848;4.334;2024-02-14T15:15:05;13.60;99.90
14475;DHT22;7323;50.848;4.334;2024-02-14T15:17:31;13.50;99.90
14475;DHT22;7323;50.848;4.334;2024-02-14T15:19:57;13.50;99.90
14475;DHT22;7323;50.848;4.334;2024-02-14T15:22:23;13.50;99.90
14475;DHT22;7323;50.848;4.334;2024-02-14T15:24:55;13.50;99.90
14475;DHT22;7323;50.848;4.334;2024-02-14T15:27:20;13.50;99.90
14475;DHT22;7323;50.848;4.334;2024-02-14T15:29:52;13.50;99.90
14475;DHT22;7323;50.848;4.334;2024-02-14T15:32:36;13.50;99.90
14475;DHT22;7323;50.848;4.334;2024-02-14T15:35:20;13.50;99.90
14475;DHT22;7323;50.848;4.334;2024-02-14T15:37:46;13.60;99.90
14475;DHT22;7323;50.848;4.334;2024-02-14T15:40:16;13.60;99.90
14475;DHT22;7323;50.848;4.334;2024-02-14T15:42:43;13.70;99.90
14475;DHT22;7323;50.848;4.334;2024-02-14T15:45:09;13.60;99.90